Time;durP1;ratioP1;P1;durP2;ratioP2;P2;SDS_P1;SDS_P2;PMS_P1;PMS_P2;Temp;Humidity;BMP_temperature;BMP_pressure;BME280_temperature;BME280_humidity;BME280_pressure;Samples;Min_cycle;Max_cycle;Signal;HPM_P1;HPM_P2
2023/07/27 10:24:36;;;;;;;5.55;2.35;;;;;;;;;;5130749;27;20030;-74
2023/07/27 10:55:50;;;;;;;6.43;4.10;;;;;;;;;;4964652;28;20089;-65
2023/07/27 10:58:19;;;;;;;84.72;14.82;;;;;;;;;;4988052;28;20283;-65
2023/07/27 11:00:45;;;;;;;92.18;15.32;;;;;;;;;;4993228;28;20420;-70
2023/07/27 11:03:12;;;;;;;78.00;13.57;;;;;;;;;;4990393;28;20566;-69
2023/07/27 11:06:07;;;;;;;51.72;9.80;;;;;;;;;;4991939;28;20039;-75
2023/07/27 11:08:43;;;;;;;35.60;8.25;;;;;;;;;;4991880;28;20054;-70
2023/07/27 11:48:13;;;;;;;4.07;2.92;;;;;;;;;;5031411;28;20388;-72
2023/07/27 11:51:01;;;;;;;;;;;;;;;;;;;;;
2023/07/27 11:53:39;;;;;;;5.22;2.67;;;;;;;;;;5063451;28;20681;-71
2023/07/27 11:56:08;;;;;;;4.60;2.45;;;;;;;;;;5083452;28;20037;-69
2023/07/27 11:58:53;;;;;;;3.35;2.30;;;;;;;;;;5078282;28;20067;-67
2023/07/27 12:01:35;;;;;;;6.53;2.60;;;;;;;;;;5073241;28;20453;-78
2023/07/27 12:04:06;;;;;;;4.47;2.45;;;;;;;;;;5074105;28;20051;-70
2023/07/27 12:06:33;;;;;;;8.75;2.50;;;;;;;;;;5083308;28;20032;-70
2023/07/27 12:18:24;;;;;;;3.33;2.33;;;;;;;;;;4996864;28;20498;-79
2023/07/27 12:20:54;;;;;;;9.32;3.10;;;;;;;;;;5045196;28;20038;-74
2023/07/27 12:23:33;;;;;;;9.07;3.08;;;;;;;;;;5036020;28;20089;-74
2023/07/27 12:26:02;;;;;;;11.38;3.17;;;;;;;;;;5039847;28;20029;-74
2023/07/27 12:29:13;;;;;;;17.88;3.97;;;;;;;;;;5041219;28;20044;-75
2023/07/27 12:31:57;;;;;;;11.45;4.68;;;;;;;;;;5070783;28;20043;-73
2023/07/27 12:47:13;;;;;;;;;;;;;;;;;;;;;
2023/07/27 12:59:40;;;;;;;5.00;3.17;;;;;;;;;;5015289;28;20454;-75
2023/07/27 13:08:15;;;;;;;4.30;3.03;;;;;;;;;;5043525;28;20072;-77
2023/07/27 13:36:08;;;;;;;4.22;2.90;;;;;;;;;;5050446;28;20039;-74
2023/07/27 13:57:33;;;;;;;3.78;2.65;;;;;;;;;;5076950;28;20013;-72
2023/07/27 14:03:33;;;;;;;4.50;2.67;;;;;;;;;;5032599;28;20078;-78
2023/07/27 14:05:59;;;;;;;4.18;2.70;;;;;;;;;;5084628;28;20478;-74
2023/07/27 14:08:26;;;;;;;4.28;2.90;;;;;;;;;;5092969;27;20046;-74
2023/07/27 14:11:34;;;;;;;;;;;;;;;;;;;;;
2023/07/27 14:14:02;;;;;;;3.75;2.65;;;;;;;;;;5042602;27;20039;-74
2023/07/27 14:16:28;;;;;;;4.15;2.80;;;;;;;;;;5137192;27;20027;-76
2023/07/27 14:19:17;;;;;;;3.95;2.60;;;;;;;;;;5138100;27;20422;-76
2023/07/27 14:21:48;;;;;;;3.08;2.67;;;;;;;;;;5138265;27;20038;-76
2023/07/27 14:24:21;;;;;;;3.92;2.72;;;;;;;;;;5137694;27;20053;-70
2023/07/27 14:26:47;;;;;;;2.78;2.25;;;;;;;;;;5136793;27;20042;-73
2023/07/27 14:29:14;;;;;;;3.88;2.65;;;;;;;;;;5136836;27;20035;-72
2023/07/27 14:31:40;;;;;;;3.03;2.50;;;;;;;;;;5137085;27;20034;-74
2023/07/27 14:34:18;;;;;;;2.72;2.38;;;;;;;;;;5136452;27;20124;-73
2023/07/27 14:38:38;;;;;;;4.75;2.55;;;;;;;;;;5133845;27;20023;-75
2023/07/27 14:39:52;;;;;;;7.25;2.60;;;;;;;;;;5095309;27;20035;-78
2023/07/27 14:42:19;;;;;;;4.78;2.30;;;;;;;;;;5122474;27;20061;-72
2023/07/27 14:44:47;;;;;;;6.85;2.53;;;;;;;;;;5132472;27;20125;-75
2023/07/27 14:47:17;;;;;;;9.85;2.83;;;;;;;;;;5133970;27;20035;-76
2023/07/27 14:49:46;;;;;;;14.27;2.80;;;;;;;;;;5136494;27;20039;-73
2023/07/27 14:52:13;;;;;;;11.32;2.85;;;;;;;;;;5135537;27;20031;-78
2023/07/27 14:54:39;;;;;;;10.02;2.72;;;;;;;;;;5136628;27;20114;-71
2023/07/27 14:57:06;;;;;;;5.07;2.78;;;;;;;;;;5136463;27;20450;-69
2023/07/27 14:59:59;;;;;;;8.50;3.10;;;;;;;;;;5136891;27;20469;-69
2023/07/27 15:02:25;;;;;;;6.57;2.53;;;;;;;;;;5108909;27;20043;-69
2023/07/27 15:17:21;;;;;;;6.13;3.15;;;;;;;;;;5092800;28;20112;-69
2023/07/27 15:23:10;;;;;;;3.45;2.55;;;;;;;;;;5093221;28;20054;-69
2023/07/27 15:25:36;;;;;;;3.85;2.63;;;;;;;;;;5094033;28;20028;-69
2023/07/27 15:28:07;;;;;;;4.43;2.90;;;;;;;;;;5094730;28;20032;-69
2023/07/27 15:30:33;;;;;;;5.10;2.78;;;;;;;;;;5093838;28;20066;-69
2023/07/27 15:33:04;;;;;;;4.90;2.67;;;;;;;;;;5094335;28;20485;-69
2023/07/27 15:35:33;;;;;;;4.93;2.70;;;;;;;;;;5094076;28;20028;-69
2023/07/27 15:38:00;;;;;;;4.22;2.70;;;;;;;;;;5094250;28;20478;-69
2023/07/27 15:40:26;;;;;;;5.43;2.88;;;;;;;;;;5094812;28;20094;-69
2023/07/27 15:42:55;;;;;;;4.50;2.63;;;;;;;;;;5094768;28;20494;-69
2023/07/27 15:45:22;;;;;;;5.03;2.70;;;;;;;;;;5094649;28;20474;-69
2023/07/27 15:47:48;;;;;;;4.78;2.95;;;;;;;;;;5095132;28;20040;-69
2023/07/27 15:50:26;;;;;;;6.50;2.78;;;;;;;;;;5095117;28;20482;-69
2023/07/27 15:52:55;;;;;;;4.00;2.70;;;;;;;;;;5096012;28;20039;-70
2023/07/27 15:55:24;;;;;;;6.15;2.85;;;;;;;;;;5096732;28;20028;-69
2023/07/27 16:00:58;;;;;;;4.10;2.80;;;;;;;;;;5012404;28;20099;-69
2023/07/27 16:03:24;;;;;;;4.57;2.60;;;;;;;;;;5093144;28;20421;-69
2023/07/27 16:05:54;;;;;;;5.03;3.00;;;;;;;;;;5094824;28;20040;-69
2023/07/27 16:08:22;;;;;;;3.83;2.58;;;;;;;;;;5102070;27;20497;-69
2023/07/27 16:10:48;;;;;;;4.35;2.75;;;;;;;;;;5135216;27;20042;-69
2023/07/27 16:13:15;;;;;;;4.05;2.45;;;;;;;;;;5134956;27;20023;-69
2023/07/27 16:15:41;;;;;;;5.95;2.83;;;;;;;;;;5135097;27;20031;-69
2023/07/27 16:18:08;;;;;;;4.25;2.70;;;;;;;;;;5135109;27;20061;-69
2023/07/27 16:20:39;;;;;;;5.90;3.03;;;;;;;;;;5134891;27;20580;-69
2023/07/27 16:23:41;;;;;;;5.03;3.20;;;;;;;;;;5134893;27;20051;-69
2023/07/27 16:26:37;;;;;;;5.30;2.90;;;;;;;;;;5135040;27;20050;-69
2023/07/27 16:29:22;;;;;;;8.15;3.00;;;;;;;;;;5134598;27;20602;-69
2023/07/27 16:32:54;;;;;;;3.42;2.70;;;;;;;;;;5134096;27;20042;-69
2023/07/27 16:38:25;;;;;;;4.03;2.50;;;;;;;;;;5031158;28;20080;-69
2023/07/27 16:41:10;;;;;;;4.13;2.90;;;;;;;;;;5031149;28;20558;-69
2023/07/27 16:44:15;;;;;;;4.00;2.63;;;;;;;;;;5031365;28;20186;-69
2023/07/27 16:46:44;;;;;;;3.85;2.72;;;;;;;;;;4991963;28;20034;-69
2023/07/27 16:49:29;;;;;;;3.95;2.58;;;;;;;;;;4991380;28;20038;-69
2023/07/27 16:51:58;;;;;;;4.80;2.65;;;;;;;;;;4991629;28;20108;-69
2023/07/27 16:57:31;;;;;;;4.45;2.92;;;;;;;;;;4991650;28;20093;-69
2023/07/27 17:00:40;;;;;;;5.65;4.15;;;;;;;;;;4990525;28;20123;-69
2023/07/27 17:03:06;;;;;;;7.82;4.10;;;;;;;;;;5090415;27;20047;-69
2023/07/27 17:05:39;;;;;;;6.72;4.10;;;;;;;;;;5133955;27;20035;-69
2023/07/27 17:08:32;;;;;;;4.65;3.90;;;;;;;;;;5133747;27;20525;-69
2023/07/27 17:11:00;;;;;;;5.10;3.70;;;;;;;;;;5133844;27;20581;-69
2023/07/27 17:13:29;;;;;;;6.10;3.78;;;;;;;;;;5133597;27;20043;-69
2023/07/27 17:16:00;;;;;;;4.93;3.70;;;;;;;;;;5133945;27;20060;-69
2023/07/27 17:18:26;;;;;;;5.78;3.65;;;;;;;;;;5133749;27;20174;-69
2023/07/27 17:20:56;;;;;;;4.60;3.53;;;;;;;;;;5133624;27;20038;-69
2023/07/27 17:23:29;;;;;;;4.95;3.50;;;;;;;;;;5133765;27;20035;-70
2023/07/27 17:29:00;;;;;;;5.35;3.10;;;;;;;;;;5133425;27;20038;-69
2023/07/27 17:32:04;;;;;;;4.60;3.15;;;;;;;;;;5104842;27;20440;-69
2023/07/27 17:34:30;;;;;;;4.70;3.05;;;;;;;;;;5029877;28;20033;-69
2023/07/27 17:36:56;;;;;;;3.80;2.92;;;;;;;;;;5030213;28;20492;-69
2023/07/27 17:42:45;;;;;;;4.25;3.03;;;;;;;;;;5030019;28;20044;-69
2023/07/27 17:45:11;;;;;;;4.80;2.90;;;;;;;;;;5029958;28;20543;-69
2023/07/27 17:47:38;;;;;;;3.50;2.70;;;;;;;;;;5030369;28;20510;-69
2023/07/27 17:50:04;;;;;;;2.88;2.50;;;;;;;;;;5123139;27;20485;-69
2023/07/27 17:52:30;;;;;;;3.53;2.55;;;;;;;;;;5133179;27;20542;-69
2023/07/27 17:55:19;;;;;;;4.72;2.83;;;;;;;;;;5133204;27;20031;-69
2023/07/27 17:57:49;;;;;;;3.83;2.60;;;;;;;;;;5106283;27;20027;-69
2023/07/27 18:00:15;;;;;;;4.05;2.78;;;;;;;;;;5133373;27;20084;-69
2023/07/27 18:02:41;;;;;;;3.65;2.45;;;;;;;;;;5133488;27;20039;-69
2023/07/27 18:05:08;;;;;;;3.05;2.58;;;;;;;;;;5133360;27;20500;-69
2023/07/27 18:07:34;;;;;;;3.13;2.47;;;;;;;;;;5133288;28;20537;-69
2023/07/27 18:16:44;;;;;;;4.47;2.70;;;;;;;;;;5029032;28;20036;-70
2023/07/27 18:19:31;;;;;;;3.95;2.60;;;;;;;;;;5128156;27;20039;-69
2023/07/27 18:25:15;;;;;;;4.63;2.80;;;;;;;;;;5132717;27;20541;-69
2023/07/27 18:28:16;;;;;;;2.92;2.25;;;;;;;;;;5132640;27;20101;-69
2023/07/27 18:30:43;;;;;;;4.18;2.60;;;;;;;;;;5132898;27;20074;-69
2023/07/27 18:42:45;;;;;;;;;;;;;;;;;;;;;
2023/07/27 18:46:16;;;;;;;3.95;2.38;;;;;;;;;;5044406;28;20434;-69
2023/07/27 18:48:28;;;;;;;3.55;2.40;;;;;;;;;;5028534;28;20031;-69
2023/07/27 18:51:12;;;;;;;4.72;2.60;;;;;;;;;;5045606;28;20037;-69
2023/07/27 18:56:47;;;;;;;3.20;2.42;;;;;;;;;;5136045;27;20128;-69
2023/07/27 18:59:47;;;;;;;3.60;2.40;;;;;;;;;;5070296;27;20031;-69
2023/07/27 19:05:30;;;;;;;5.47;2.53;;;;;;;;;;4974205;28;20027;-70
2023/07/27 19:11:27;;;;;;;3.40;2.50;;;;;;;;;;4991113;28;20044;-70
2023/07/27 19:14:11;;;;;;;3.40;2.40;;;;;;;;;;5053085;28;20049;-69
2023/07/27 19:23:02;;;;;;;3.40;2.38;;;;;;;;;;5053190;28;20032;-70
2023/07/27 19:25:28;;;;;;;4.30;2.58;;;;;;;;;;5090148;28;20478;-69
2023/07/27 19:27:55;;;;;;;2.92;2.58;;;;;;;;;;5095141;28;20561;-69
2023/07/27 19:30:24;;;;;;;4.10;2.53;;;;;;;;;;5095030;28;20047;-69
2023/07/27 19:36:08;;;;;;;3.53;2.38;;;;;;;;;;5094873;28;20025;-69
2023/07/27 19:38:39;;;;;;;3.70;2.63;;;;;;;;;;5092246;28;20028;-69
2023/07/27 19:44:17;;;;;;;6.80;2.70;;;;;;;;;;5094751;28;20043;-69
2023/07/27 19:51:56;;;;;;;3.60;2.53;;;;;;;;;;5090254;28;20096;-69
2023/07/27 19:55:50;;;;;;;5.00;2.75;;;;;;;;;;5095309;28;20078;-70
2023/07/27 19:58:16;;;;;;;4.20;2.90;;;;;;;;;;5095363;28;20058;-69
2023/07/27 20:00:43;;;;;;;3.33;2.55;;;;;;;;;;5094755;28;20097;-70
2023/07/27 20:03:09;;;;;;;3.72;2.53;;;;;;;;;;5094396;28;20551;-69
2023/07/27 20:05:42;;;;;;;4.50;2.70;;;;;;;;;;5093972;28;20478;-69
2023/07/27 20:08:17;;;;;;;3.95;2.63;;;;;;;;;;5093576;28;20089;-69
2023/07/27 20:10:44;;;;;;;6.18;2.55;;;;;;;;;;5124715;27;20558;-69
2023/07/27 20:13:17;;;;;;;4.65;2.80;;;;;;;;;;5135364;27;20042;-70
2023/07/27 20:15:44;;;;;;;;;;;;;;;;;;5135434;27;20446;-69
2023/07/27 20:18:10;;;;;;;4.55;2.95;;;;;;;;;;5134835;27;19903;-69
2023/07/27 20:20:39;;;;;;;4.57;2.90;;;;;;;;;;5135000;27;20039;-70
2023/07/27 20:23:06;;;;;;;4.55;2.80;;;;;;;;;;5134953;27;20054;-70
2023/07/27 20:28:35;;;;;;;4.97;2.85;;;;;;;;;;5134644;27;20550;-70
2023/07/27 20:31:06;;;;;;;4.20;2.92;;;;;;;;;;5134432;27;20485;-70
2023/07/27 20:33:35;;;;;;;4.57;2.78;;;;;;;;;;5134658;27;20027;-70
2023/07/27 20:36:07;;;;;;;4.05;2.90;;;;;;;;;;5134501;27;20104;-70
2023/07/27 20:38:33;;;;;;;4.53;2.90;;;;;;;;;;5134691;27;20070;-69
2023/07/27 20:41:04;;;;;;;4.55;3.00;;;;;;;;;;5134628;27;20043;-69
2023/07/27 20:43:30;;;;;;;4.35;2.88;;;;;;;;;;5134204;27;20031;-69
2023/07/27 20:46:00;;;;;;;5.35;3.10;;;;;;;;;;5134451;27;20039;-70
2023/07/27 20:48:46;;;;;;;4.95;2.90;;;;;;;;;;5134305;27;20084;-70
2023/07/27 20:51:12;;;;;;;6.78;2.92;;;;;;;;;;5134291;27;20035;-69
2023/07/27 20:54:18;;;;;;;6.03;3.15;;;;;;;;;;5134437;27;20481;-69
2023/07/27 20:56:59;;;;;;;6.10;3.00;;;;;;;;;;5130538;27;20023;-69
2023/07/27 21:03:14;;;;;;;4.50;2.92;;;;;;;;;;4972126;28;20027;-69
2023/07/27 21:06:12;;;;;;;4.82;3.38;;;;;;;;;;5017055;28;20038;-69
2023/07/27 21:08:53;;;;;;;5.57;3.03;;;;;;;;;;5030784;28;20084;-69
2023/07/27 21:11:19;;;;;;;6.78;3.67;;;;;;;;;;5112392;27;20125;-69
2023/07/27 21:14:22;;;;;;;4.70;3.30;;;;;;;;;;5134000;27;20062;-69
2023/07/27 21:23:22;;;;;;;;;;;;;;;;;;;;;
2023/07/27 21:25:58;;;;;;;7.28;3.60;;;;;;;;;;5047146;28;20051;-70
2023/07/27 21:28:52;;;;;;;5.00;3.47;;;;;;;;;;5049559;28;20035;-69
2023/07/27 21:31:55;;;;;;;7.20;3.60;;;;;;;;;;5040850;28;20052;-69
2023/07/27 21:34:51;;;;;;;5.47;3.67;;;;;;;;;;5088293;27;20042;-69
2023/07/27 21:40:27;;;;;;;5.85;3.83;;;;;;;;;;4971194;28;20038;-69
2023/07/27 21:42:56;;;;;;;6.10;4.15;;;;;;;;;;5120585;27;20499;-69
2023/07/27 21:45:22;;;;;;;6.38;4.00;;;;;;;;;;5133653;27;20080;-69
2023/07/27 21:47:51;;;;;;;6.82;4.32;;;;;;;;;;5133263;27;20035;-69
2023/07/27 21:50:18;;;;;;;7.15;4.43;;;;;;;;;;5133184;27;20046;-69
2023/07/27 21:52:44;;;;;;;6.40;4.45;;;;;;;;;;5133240;27;20480;-69
2023/07/27 21:55:32;;;;;;;6.22;4.20;;;;;;;;;;5133232;27;20511;-69
2023/07/27 21:57:57;;;;;;;5.68;4.28;;;;;;;;;;5132259;27;20039;-70
2023/07/27 22:00:23;;;;;;;5.28;3.90;;;;;;;;;;5133229;27;20492;-69
2023/07/27 22:02:49;;;;;;;7.25;4.50;;;;;;;;;;5133071;27;20131;-70
2023/07/27 22:05:18;;;;;;;6.75;4.20;;;;;;;;;;5133449;27;20042;-69
2023/07/27 22:07:48;;;;;;;4.85;3.90;;;;;;;;;;5133113;28;20062;-69
2023/07/27 22:10:18;;;;;;;7.45;4.05;;;;;;;;;;5132802;28;20489;-69
2023/07/27 22:12:51;;;;;;;7.22;4.53;;;;;;;;;;5133042;28;20081;-69
2023/07/27 22:15:24;;;;;;;5.20;4.00;;;;;;;;;;5132882;28;20061;-69
2023/07/27 22:17:50;;;;;;;5.57;3.70;;;;;;;;;;5133002;28;20747;-70
2023/07/27 22:20:28;;;;;;;6.15;4.20;;;;;;;;;;5133163;28;20043;-69
2023/07/27 22:23:07;;;;;;;5.75;4.00;;;;;;;;;;5132353;28;20039;-69
2023/07/27 22:28:40;;;;;;;6.68;4.40;;;;;;;;;;5069824;28;20119;-69
2023/07/27 22:34:12;;;;;;;6.30;3.88;;;;;;;;;;5136971;27;20392;-69
2023/07/27 22:36:38;;;;;;;5.53;3.90;;;;;;;;;;5136974;27;20414;-70
2023/07/27 22:39:04;;;;;;;6.30;3.90;;;;;;;;;;5137023;27;20034;-70
2023/07/27 22:41:31;;;;;;;5.78;3.80;;;;;;;;;;5137053;27;20157;-69
2023/07/27 22:43:58;;;;;;;5.93;3.95;;;;;;;;;;5136746;27;20031;-69
2023/07/27 22:46:24;;;;;;;5.20;3.72;;;;;;;;;;5137065;27;20042;-69
2023/07/27 22:48:51;;;;;;;5.22;3.60;;;;;;;;;;5136907;27;20392;-69
2023/07/27 22:51:19;;;;;;;5.93;3.95;;;;;;;;;;5136792;27;20049;-69
2023/07/27 22:53:45;;;;;;;5.72;4.00;;;;;;;;;;5136699;27;20055;-69
2023/07/27 22:56:12;;;;;;;6.57;3.70;;;;;;;;;;5136615;27;20039;-69
2023/07/27 22:58:38;;;;;;;6.45;3.70;;;;;;;;;;5136618;27;20373;-69
2023/07/27 23:03:47;;;;;;;5.95;3.70;;;;;;;;;;5109904;27;20386;-68
2023/07/27 23:06:14;;;;;;;5.82;3.72;;;;;;;;;;5109855;28;20036;-68
2023/07/27 23:08:40;;;;;;;5.68;4.00;;;;;;;;;;5109885;28;20036;-68
2023/07/27 23:11:06;;;;;;;6.00;3.58;;;;;;;;;;5109865;28;20475;-68
2023/07/27 23:13:33;;;;;;;5.22;3.65;;;;;;;;;;5109682;28;20347;-68
2023/07/27 23:15:59;;;;;;;5.88;4.00;;;;;;;;;;5109916;28;20028;-68
2023/07/27 23:18:26;;;;;;;4.97;3.53;;;;;;;;;;5109533;28;20470;-68
2023/07/27 23:20:52;;;;;;;6.53;3.55;;;;;;;;;;5109551;28;20024;-68
2023/07/27 23:23:18;;;;;;;5.07;3.47;;;;;;;;;;5109804;28;20024;-68
2023/07/27 23:25:44;;;;;;;5.53;3.60;;;;;;;;;;5109701;28;20024;-68
2023/07/27 23:28:11;;;;;;;4.65;3.45;;;;;;;;;;5109661;28;20152;-68
2023/07/27 23:30:37;;;;;;;6.20;3.55;;;;;;;;;;5109449;28;20023;-68
2023/07/27 23:33:03;;;;;;;5.07;3.40;;;;;;;;;;5109369;28;20134;-68
2023/07/27 23:35:29;;;;;;;4.80;3.53;;;;;;;;;;5109379;28;20457;-67
2023/07/27 23:37:55;;;;;;;6.15;3.85;;;;;;;;;;5109365;28;20450;-68
2023/07/27 23:40:22;;;;;;;8.98;3.40;;;;;;;;;;5109337;28;20477;-68
2023/07/27 23:42:48;;;;;;;8.25;3.60;;;;;;;;;;5109010;28;20109;-68
2023/07/27 23:45:14;;;;;;;4.80;3.10;;;;;;;;;;5109194;28;20032;-68
2023/07/27 23:47:41;;;;;;;5.20;3.20;;;;;;;;;;5109072;28;20020;-68
2023/07/27 23:50:07;;;;;;;7.53;3.17;;;;;;;;;;5107922;28;20117;-68
2023/07/27 23:52:34;;;;;;;4.40;3.13;;;;;;;;;;5109178;28;20470;-67
2023/07/27 23:55:12;;;;;;;5.53;3.40;;;;;;;;;;5109008;28;20466;-68
2023/07/27 23:57:39;;;;;;;4.85;3.10;;;;;;;;;;5108974;28;20066;-68
